createdAt,value
2022-12-04T00:02:53.701Z,17.58
2022-12-04T00:06:03.830Z,20.30
2022-12-04T00:09:06.106Z,19.83
2022-12-04T00:12:08.372Z,19.20
2022-12-04T00:15:26.943Z,18.30
2022-12-04T00:18:29.372Z,18.65
2022-12-04T00:21:31.771Z,19.35
2022-12-04T00:24:34.548Z,19.15
2022-12-04T00:27:36.442Z,19.03
2022-12-04T00:30:41.641Z,17.67
2022-12-04T00:33:43.753Z,17.35
2022-12-04T00:36:46.245Z,17.67
2022-12-04T00:39:48.223Z,20.17
2022-12-04T00:42:50.249Z,18.97
2022-12-04T00:45:52.538Z,16.50
2022-12-04T00:48:55.266Z,18.00
2022-12-04T00:51:57.228Z,17.40
2022-12-04T00:54:59.256Z,17.65
2022-12-04T00:58:01.235Z,18.53
2022-12-04T01:01:09.323Z,20.00
2022-12-04T01:04:11.529Z,18.12
2022-12-04T01:07:13.615Z,16.25
2022-12-04T01:10:15.836Z,18.37
2022-12-04T01:13:17.926Z,18.97
2022-12-04T01:16:30.704Z,18.03
2022-12-04T01:19:32.719Z,17.02
2022-12-04T01:22:34.852Z,17.33
2022-12-04T01:25:36.888Z,16.98
2022-12-04T01:28:39.470Z,16.40
2022-12-04T01:31:41.643Z,13.50
2022-12-04T01:34:43.865Z,17.62
2022-12-04T01:37:45.869Z,17.58
2022-12-04T01:40:48.237Z,17.02
2022-12-04T01:44:14.257Z,16.90
2022-12-04T01:47:16.254Z,15.60
2022-12-04T01:50:18.683Z,15.85
2022-12-04T01:53:21.335Z,14.95
2022-12-04T01:56:29.390Z,14.87
2022-12-04T01:59:35.770Z,14.63
2022-12-04T02:02:47.839Z,15.07
2022-12-04T02:05:50.140Z,14.13
2022-12-04T02:08:52.228Z,13.88
2022-12-04T02:12:15.885Z,14.60
2022-12-04T02:15:29.349Z,14.80
2022-12-04T02:18:54.059Z,13.20
2022-12-04T02:21:59.561Z,12.02
2022-12-04T02:25:23.398Z,12.85
2022-12-04T02:28:28.499Z,12.73
2022-12-04T02:32:03.460Z,12.07
2022-12-04T02:35:16.987Z,12.40
2022-12-04T02:38:23.377Z,13.55
2022-12-04T02:41:42.048Z,12.05
2022-12-04T02:44:54.158Z,13.75
2022-12-04T02:47:59.124Z,12.57
2022-12-04T02:51:03.726Z,13.77
2022-12-04T02:54:20.482Z,11.32
2022-12-04T02:57:27.664Z,12.25
2022-12-04T03:00:31.986Z,11.98
2022-12-04T03:03:35.300Z,13.77
2022-12-04T03:06:40.615Z,10.03
2022-12-04T03:09:46.868Z,12.27
2022-12-04T03:13:17.252Z,11.98
2022-12-04T03:16:24.694Z,13.52
2022-12-04T03:19:29.773Z,13.17
2022-12-04T03:22:35.137Z,11.90
2022-12-04T03:25:44.401Z,10.35
2022-12-04T03:29:23.649Z,16.25
2022-12-04T03:32:39.081Z,15.00
2022-12-04T03:35:59.186Z,12.80
2022-12-04T03:39:12.308Z,15.07
2022-12-04T03:42:31.728Z,14.98
2022-12-04T03:45:47.417Z,15.63
2022-12-04T03:49:19.541Z,15.13
2022-12-04T03:52:28.129Z,14.13
2022-12-04T03:55:34.761Z,14.10
2022-12-04T03:58:41.594Z,11.63
2022-12-04T04:01:48.968Z,12.90
2022-12-04T04:04:56.012Z,16.65
2022-12-04T04:08:29.666Z,12.37
2022-12-04T04:11:38.477Z,17.37
2022-12-04T04:15:04.832Z,14.55
2022-12-04T04:18:25.424Z,11.32
2022-12-04T04:21:51.271Z,15.20
2022-12-04T04:25:11.287Z,14.00
2022-12-04T04:28:36.517Z,14.40
2022-12-04T04:31:43.342Z,9.50
2022-12-04T04:34:45.241Z,13.98
2022-12-04T04:38:20.811Z,12.85
2022-12-04T04:41:33.183Z,13.43
2022-12-04T04:44:46.609Z,12.27
2022-12-04T04:48:01.161Z,14.32
2022-12-04T04:51:04.650Z,12.40
2022-12-04T04:54:10.322Z,12.63
2022-12-04T04:57:12.294Z,8.67
2022-12-04T05:00:24.246Z,9.53
2022-12-04T05:03:27.516Z,15.48
2022-12-04T05:06:29.520Z,13.55
2022-12-04T05:09:31.483Z,14.85
2022-12-04T05:12:33.851Z,7.43
2022-12-04T05:15:36.259Z,14.47
2022-12-04T05:18:38.569Z,15.30
2022-12-04T05:21:41.782Z,12.80
2022-12-04T05:24:43.747Z,16.55
2022-12-04T05:27:45.702Z,14.07
2022-12-04T05:30:55.568Z,12.73
2022-12-04T05:33:57.594Z,13.95
2022-12-04T05:36:59.855Z,16.12
2022-12-04T05:40:01.933Z,11.52
2022-12-04T05:43:03.972Z,15.47
2022-12-04T05:46:08.629Z,16.00
2022-12-04T05:49:10.679Z,14.75
2022-12-04T05:52:14.087Z,11.30
2022-12-04T05:55:16.064Z,14.82
2022-12-04T05:58:18.105Z,13.73
2022-12-04T06:01:23.273Z,13.80
2022-12-04T06:04:25.348Z,14.55
2022-12-04T06:07:27.446Z,14.52
2022-12-04T06:10:29.504Z,15.50
2022-12-04T06:13:31.423Z,13.13
2022-12-04T06:16:39.126Z,14.20
2022-12-04T06:19:41.337Z,8.10
2022-12-04T06:22:43.443Z,11.77
2022-12-04T06:25:45.433Z,14.38
2022-12-04T06:28:47.594Z,12.43
2022-12-04T06:31:49.753Z,12.23
2022-12-04T06:34:55.487Z,13.15
2022-12-04T06:37:57.487Z,12.98
2022-12-04T06:40:59.902Z,15.10
2022-12-04T06:44:01.908Z,14.23
2022-12-04T06:47:03.857Z,10.90
2022-12-04T06:50:07.052Z,14.57
2022-12-04T06:53:09.056Z,14.25
2022-12-04T06:56:14.461Z,14.87
2022-12-04T06:59:16.584Z,14.70
2022-12-04T07:02:18.746Z,13.53
2022-12-04T07:05:20.726Z,12.45
2022-12-04T07:08:22.991Z,14.00
2022-12-04T07:11:25.328Z,14.05
2022-12-04T07:14:27.629Z,14.47
2022-12-04T07:17:29.644Z,13.10
2022-12-04T07:20:31.981Z,13.77
2022-12-04T07:23:34.601Z,9.85
2022-12-04T07:26:36.593Z,14.30
2022-12-04T07:29:38.681Z,11.73
2022-12-04T07:32:40.744Z,13.63
2022-12-04T07:35:42.764Z,14.68
2022-12-04T07:38:44.829Z,14.75
2022-12-04T07:41:47.263Z,12.95
2022-12-04T07:44:49.432Z,12.07
2022-12-04T07:47:51.386Z,12.53
2022-12-04T07:51:03.803Z,13.50
2022-12-04T07:54:06.130Z,12.75
2022-12-04T07:57:08.157Z,11.02
2022-12-04T08:00:11.140Z,10.87
2022-12-04T08:03:13.188Z,12.10
2022-12-04T08:06:16.185Z,13.07
2022-12-04T08:09:18.423Z,11.75
2022-12-04T08:12:20.424Z,12.68
2022-12-04T08:15:22.363Z,12.70
2022-12-04T08:18:24.382Z,11.00
2022-12-04T08:21:29.490Z,11.82
2022-12-04T08:24:31.515Z,8.48
2022-12-04T08:27:34.033Z,13.02
2022-12-04T08:30:36.431Z,12.10
2022-12-04T08:33:38.723Z,11.43
2022-12-04T08:36:40.927Z,11.63
2022-12-04T08:39:42.898Z,10.77
2022-12-04T08:42:44.893Z,12.32
2022-12-04T08:45:55.970Z,12.80
2022-12-04T08:48:58.617Z,12.80
2022-12-04T08:52:00.569Z,9.13
2022-12-04T08:55:02.637Z,7.55
2022-12-04T08:58:04.661Z,10.63
2022-12-04T09:01:10.628Z,11.87
2022-12-04T09:04:13.554Z,9.27
2022-12-04T09:07:16.030Z,10.18
2022-12-04T09:10:18.558Z,10.68
2022-12-04T09:13:21.045Z,7.95
2022-12-04T09:16:25.244Z,11.50
2022-12-04T09:19:29.145Z,10.57
2022-12-04T09:22:51.377Z,9.43
2022-12-04T09:25:54.631Z,8.85
2022-12-04T09:29:00.178Z,7.20
2022-12-04T09:32:02.179Z,12.70
2022-12-04T09:35:06.836Z,8.07
2022-12-04T09:38:09.362Z,9.55
2022-12-04T09:41:33.795Z,8.88
2022-12-04T09:45:07.979Z,10.10
2022-12-04T09:48:12.682Z,9.83
2022-12-04T09:51:19.414Z,7.27
2022-12-04T09:54:26.531Z,6.53
2022-12-04T09:57:44.281Z,8.27
2022-12-04T10:00:50.482Z,11.82
2022-12-04T10:03:54.737Z,6.93
2022-12-04T10:07:17.126Z,6.67
2022-12-04T10:10:37.440Z,8.50
2022-12-04T10:14:02.030Z,10.88
2022-12-04T10:17:20.276Z,10.27
2022-12-04T10:20:38.214Z,11.87
2022-12-04T10:23:46.782Z,9.43
2022-12-04T10:26:49.921Z,9.77
2022-12-04T10:29:58.369Z,11.18
2022-12-04T10:33:13.401Z,9.18
2022-12-04T10:36:22.158Z,5.67
2022-12-04T10:39:33.381Z,6.80
2022-12-04T10:42:56.192Z,8.73
2022-12-04T10:45:58.720Z,10.27
2022-12-04T10:49:12.549Z,7.57
2022-12-04T10:52:14.568Z,9.50
2022-12-04T10:55:31.572Z,9.10
2022-12-04T10:58:33.701Z,7.97
2022-12-04T11:01:36.129Z,6.45
2022-12-04T11:04:38.303Z,6.25
2022-12-04T11:07:47.135Z,11.27
2022-12-04T11:11:00.520Z,9.50
2022-12-04T11:14:14.868Z,9.40
2022-12-04T11:17:20.051Z,11.70
2022-12-04T11:20:26.507Z,8.45
2022-12-04T11:23:43.713Z,9.53
2022-12-04T11:26:47.452Z,7.13
2022-12-04T11:29:52.518Z,7.97
2022-12-04T11:32:55.695Z,10.35
2022-12-04T11:36:03.420Z,12.73
2022-12-04T11:39:30.090Z,11.33
2022-12-04T11:42:33.208Z,8.97
2022-12-04T11:45:35.442Z,10.73
2022-12-04T11:48:45.566Z,10.35
2022-12-04T11:52:46.307Z,10.68
2022-12-04T11:55:59.075Z,8.73
2022-12-04T11:59:35.897Z,7.47
2022-12-04T12:02:56.973Z,8.77
2022-12-04T12:06:25.815Z,10.55
2022-12-04T12:09:43.192Z,6.20
2022-12-04T12:13:06.034Z,10.53
2022-12-04T12:16:25.675Z,10.33
2022-12-04T12:19:36.775Z,11.05
2022-12-04T12:23:06.608Z,8.73
2022-12-04T12:26:15.950Z,7.75
2022-12-04T12:29:34.095Z,9.37
2022-12-04T12:32:45.857Z,9.53
2022-12-04T12:36:14.593Z,5.22
2022-12-04T12:39:23.524Z,10.43
2022-12-04T12:42:31.021Z,9.43
2022-12-04T12:45:43.123Z,9.03
2022-12-04T12:49:01.175Z,8.50
2022-12-04T12:52:20.581Z,7.78
2022-12-04T12:55:41.525Z,8.52
2022-12-04T12:58:51.054Z,4.87
2022-12-04T13:02:14.710Z,10.03
2022-12-04T13:05:25.539Z,6.70
2022-12-04T13:08:35.395Z,10.43
2022-12-04T13:11:38.880Z,9.82
2022-12-04T13:14:44.675Z,7.93
2022-12-04T13:17:55.788Z,8.47
2022-12-04T13:21:03.167Z,9.57
2022-12-04T13:24:35.255Z,8.48
2022-12-04T13:27:58.447Z,9.13
2022-12-04T13:31:26.009Z,11.00
2022-12-04T13:34:33.953Z,9.47
2022-12-04T13:37:38.827Z,11.17
2022-12-04T13:40:47.919Z,11.57
2022-12-04T13:43:52.375Z,9.27
2022-12-04T13:46:57.279Z,9.40
2022-12-04T13:50:17.995Z,9.93
2022-12-04T13:53:40.520Z,9.73
2022-12-04T13:56:49.087Z,10.48
2022-12-04T14:00:05.210Z,11.40
2022-12-04T14:03:25.633Z,11.52
2022-12-04T14:06:43.739Z,12.23
2022-12-04T14:09:53.756Z,13.30
2022-12-04T14:13:00.620Z,10.65
2022-12-04T14:16:30.244Z,10.85
2022-12-04T14:19:36.135Z,9.45
2022-12-04T14:22:38.145Z,10.40
2022-12-04T14:25:40.789Z,10.53
2022-12-04T14:28:44.391Z,7.70
2022-12-04T14:31:46.908Z,9.93
2022-12-04T14:34:50.123Z,9.77
2022-12-04T14:38:04.349Z,6.43
2022-12-04T14:44:36.778Z,10.38
2022-12-04T14:48:06.256Z,9.82
2022-12-04T14:51:25.739Z,9.82
2022-12-04T14:54:36.603Z,9.67
2022-12-04T14:57:48.367Z,11.60
2022-12-04T15:00:55.638Z,10.00
2022-12-04T15:04:04.547Z,10.25
2022-12-04T15:07:08.384Z,10.02
2022-12-04T15:10:47.955Z,9.80
2022-12-04T15:13:51.042Z,9.43
2022-12-04T15:17:06.494Z,8.75
2022-12-04T15:20:20.205Z,9.80
2022-12-04T15:23:35.057Z,10.13
2022-12-04T15:26:39.125Z,10.27
2022-12-04T15:29:48.857Z,9.10
2022-12-04T15:32:55.599Z,9.35
2022-12-04T15:36:03.702Z,9.77
2022-12-04T15:39:06.991Z,10.23
2022-12-04T15:42:17.589Z,10.47
2022-12-04T15:45:19.746Z,9.67
2022-12-04T15:48:30.741Z,9.95
2022-12-04T15:51:35.998Z,10.45
2022-12-04T15:54:43.931Z,10.45
2022-12-04T15:57:54.640Z,11.50
2022-12-04T16:01:07.301Z,11.63
2022-12-04T16:04:22.320Z,9.80
2022-12-04T16:07:30.143Z,9.85
2022-12-04T16:10:35.168Z,10.00
2022-12-04T16:13:39.385Z,9.53
2022-12-04T16:16:45.074Z,9.60
2022-12-04T16:19:48.128Z,9.63
2022-12-04T16:22:55.153Z,9.35
2022-12-04T16:25:58.171Z,9.40
2022-12-04T16:29:01.295Z,9.70
2022-12-04T16:32:04.091Z,10.13
2022-12-04T16:35:07.666Z,10.00
2022-12-04T16:38:17.803Z,10.57
2022-12-04T16:41:22.142Z,10.48
2022-12-04T16:44:24.589Z,11.33
2022-12-04T16:47:27.278Z,10.33
2022-12-04T16:50:30.698Z,9.40
2022-12-04T16:53:33.771Z,9.20
2022-12-04T16:56:35.867Z,9.70
2022-12-04T16:59:38.129Z,9.33
2022-12-04T17:02:41.153Z,10.33
2022-12-04T17:05:43.740Z,10.38
2022-12-04T17:08:46.386Z,9.38
2022-12-04T17:11:49.220Z,9.35
2022-12-04T17:14:55.763Z,10.00
2022-12-04T17:17:58.436Z,10.17
2022-12-04T17:21:06.504Z,10.55
2022-12-04T17:24:09.582Z,11.35
2022-12-04T17:27:14.806Z,10.50
2022-12-04T17:30:18.266Z,10.33
2022-12-04T17:33:20.591Z,10.10
2022-12-04T17:36:26.666Z,10.60
2022-12-04T17:39:29.576Z,10.90
2022-12-04T17:42:32.588Z,10.95
2022-12-04T17:45:35.056Z,11.63
2022-12-04T17:48:38.565Z,11.00
2022-12-04T17:51:40.765Z,10.88
2022-12-04T17:54:42.741Z,10.15
2022-12-04T17:57:45.042Z,10.88
2022-12-04T18:00:47.712Z,10.87
2022-12-04T18:03:53.933Z,10.20
2022-12-04T18:06:57.079Z,11.73
2022-12-04T18:09:59.836Z,10.70
2022-12-04T18:13:02.754Z,10.95
2022-12-04T18:16:12.682Z,11.83
2022-12-04T18:19:15.914Z,9.50
2022-12-04T18:22:19.551Z,11.57
2022-12-04T18:25:22.168Z,10.40
2022-12-04T18:28:25.353Z,10.20
2022-12-04T18:31:27.809Z,11.13
2022-12-04T18:34:30.216Z,10.03
2022-12-04T18:37:34.185Z,10.65
2022-12-04T18:40:36.967Z,11.15
2022-12-04T18:43:42.894Z,10.35
2022-12-04T18:46:45.738Z,10.30
2022-12-04T18:49:48.337Z,11.33
2022-12-04T18:52:57.764Z,11.52
2022-12-04T18:56:02.705Z,13.32
2022-12-04T18:59:16.652Z,13.13
2022-12-04T19:02:19.183Z,14.47
2022-12-04T19:05:21.907Z,15.83
2022-12-04T19:08:28.497Z,18.73
2022-12-04T19:11:34.626Z,25.45
2022-12-04T19:14:38.553Z,44.05
2022-12-04T19:17:41.128Z,39.87
2022-12-04T19:20:47.656Z,40.33
2022-12-04T19:23:53.788Z,28.17
2022-12-04T19:26:56.479Z,21.48
2022-12-04T19:30:00.660Z,17.92
2022-12-04T19:33:03.787Z,15.43
2022-12-04T19:36:06.985Z,16.00
2022-12-04T19:39:10.677Z,15.82
2022-12-04T19:42:13.249Z,15.43
2022-12-04T19:45:17.829Z,13.95
2022-12-04T19:48:20.661Z,13.90
2022-12-04T19:51:24.721Z,13.80
2022-12-04T19:54:28.022Z,13.95
2022-12-04T19:57:30.150Z,14.30
2022-12-04T20:00:32.653Z,14.30
2022-12-04T20:03:36.301Z,14.73
2022-12-04T20:06:44.307Z,12.03
2022-12-04T20:09:52.029Z,13.43
2022-12-04T20:12:54.971Z,13.13
2022-12-04T20:16:02.631Z,13.52
2022-12-04T20:19:07.162Z,12.50
2022-12-04T20:22:09.836Z,10.23
2022-12-04T20:25:13.476Z,12.88
2022-12-04T20:28:16.024Z,14.10
2022-12-04T20:31:30.049Z,13.38
2022-12-04T20:34:32.762Z,11.03
2022-12-04T20:37:36.498Z,11.00
2022-12-04T20:40:39.271Z,12.43
2022-12-04T20:43:46.122Z,11.90
2022-12-04T20:46:49.285Z,11.77
2022-12-04T20:49:51.823Z,9.60
2022-12-04T20:52:55.228Z,10.53
2022-12-04T20:55:57.299Z,10.55
2022-12-04T20:59:06.531Z,11.85
2022-12-04T21:02:11.715Z,12.32
2022-12-04T21:05:14.152Z,10.03
2022-12-04T21:08:39.541Z,9.27
2022-12-04T21:11:48.282Z,10.25
2022-12-04T21:15:08.919Z,11.25
2022-12-04T21:18:11.179Z,10.55
2022-12-04T21:21:13.204Z,10.00
2022-12-04T21:24:17.538Z,11.30
2022-12-04T21:27:21.347Z,10.63
2022-12-04T21:30:23.563Z,9.98
2022-12-04T21:33:26.013Z,10.70
2022-12-04T21:36:29.138Z,11.40
2022-12-04T21:39:31.329Z,10.43
2022-12-04T21:42:34.632Z,11.02
2022-12-04T21:45:36.586Z,10.38
2022-12-04T21:48:39.188Z,11.20
2022-12-04T21:51:57.134Z,11.23
2022-12-04T21:54:59.997Z,10.97
2022-12-04T21:58:01.974Z,11.80
2022-12-04T22:01:24.623Z,11.23
2022-12-04T22:04:26.846Z,10.50
2022-12-04T22:07:28.971Z,12.00
2022-12-04T22:10:31.671Z,11.20
2022-12-04T22:13:33.991Z,11.50
2022-12-04T22:16:41.566Z,11.85
2022-12-04T22:19:44.763Z,11.27
2022-12-04T22:22:46.749Z,10.13
2022-12-04T22:25:48.743Z,9.97
2022-12-04T22:28:51.102Z,9.75
2022-12-04T22:31:53.135Z,9.73
2022-12-04T22:34:55.205Z,10.32
2022-12-04T22:37:57.230Z,10.07
2022-12-04T22:41:04.197Z,9.50
2022-12-04T22:44:06.389Z,9.75
2022-12-04T22:47:08.469Z,10.77
2022-12-04T22:50:12.176Z,10.88
2022-12-04T22:53:14.206Z,10.20
2022-12-04T22:56:28.067Z,10.03
2022-12-04T22:59:30.139Z,10.77
2022-12-04T23:02:33.124Z,11.48
2022-12-04T23:05:35.366Z,11.20
2022-12-04T23:08:38.646Z,10.33
2022-12-04T23:11:41.540Z,11.37
2022-12-04T23:14:43.442Z,10.82
2022-12-04T23:17:45.720Z,9.88
2022-12-04T23:20:47.691Z,11.20
2022-12-04T23:23:52.183Z,8.27
2022-12-04T23:26:54.537Z,10.23
2022-12-04T23:29:56.693Z,10.52
2022-12-04T23:32:58.692Z,11.55
2022-12-04T23:36:02.433Z,10.52
2022-12-04T23:39:04.544Z,11.10
2022-12-04T23:42:06.914Z,11.30
2022-12-04T23:45:09.254Z,11.90
2022-12-04T23:48:11.458Z,11.95
2022-12-04T23:51:15.723Z,11.60
2022-12-04T23:54:17.955Z,12.00
2022-12-04T23:57:19.999Z,10.00
